<?xml version="1.0" encoding="UTF-8" standalone="no" ?>
<gpx xmlns="http://www.topografix.com/GPX/1/1" xmlns:xsi="http://www.w3.org/2001/XMLSchema-instance" xsi:schemaLocation="http://www.topografix.com/GPX/1/1 http://www.topografix.com/GPX/1/1/gpx.xsd" version="1.1" creator="VisuGPX - https://www.visugpx.com">
  <metadata>
    <name>VTT-AM-2-Vaugneray_20km_600D</name>
  </metadata>
  <trk>
    <name><![CDATA[VTT-AM-2-Vaugneray_20km_600D]]></name>
    <extensions>
      <line xmlns="http://www.topografix.com/GPX/gpx_style/0/2">
        <color>0000FF</color>
        <width>4</width>
      </line>
    </extensions>
    <trkseg>
      <trkpt lat="45.73683" lon="4.6565">
        <ele>401.4</ele>
        <time>2019-05-24T20:47:20.000Z</time>
      </trkpt>
      <trkpt lat="45.7339" lon="4.65657">
        <ele>371.8</ele>
        <time>2019-05-24T20:47:25.866Z</time>
      </trkpt>
      <trkpt lat="45.73363" lon="4.65669">
        <ele>369.2</ele>
        <time>2019-05-24T20:47:26.436Z</time>
      </trkpt>
      <trkpt lat="45.73256" lon="4.65613">
        <ele>356.8</ele>
        <time>2019-05-24T20:47:28.716Z</time>
      </trkpt>
      <trkpt lat="45.7317" lon="4.65635">
        <ele>367.8</ele>
        <time>2019-05-24T20:47:30.466Z</time>
      </trkpt>
      <trkpt lat="45.73063" lon="4.65618">
        <ele>377.8</ele>
        <time>2019-05-24T20:47:32.637Z</time>
      </trkpt>
      <trkpt lat="45.73009" lon="4.65583">
        <ele>382</ele>
        <time>2019-05-24T20:47:33.808Z</time>
      </trkpt>
      <trkpt lat="45.72861" lon="4.65571">
        <ele>384.4</ele>
        <time>2019-05-24T20:47:36.784Z</time>
      </trkpt>
      <trkpt lat="45.72777" lon="4.65516">
        <ele>387.3</ele>
        <time>2019-05-24T20:47:38.641Z</time>
      </trkpt>
      <trkpt lat="45.72659" lon="4.65524">
        <ele>382.3</ele>
        <time>2019-05-24T20:47:40.992Z</time>
      </trkpt>
      <trkpt lat="45.72626" lon="4.65413">
        <ele>381.6</ele>
        <time>2019-05-24T20:47:42.681Z</time>
      </trkpt>
      <trkpt lat="45.72517" lon="4.65447">
        <ele>371.6</ele>
        <time>2019-05-24T20:47:44.911Z</time>
      </trkpt>
      <trkpt lat="45.72457" lon="4.65502">
        <ele>365.2</ele>
        <time>2019-05-24T20:47:46.335Z</time>
      </trkpt>
      <trkpt lat="45.72355" lon="4.65459">
        <ele>356.7</ele>
        <time>2019-05-24T20:47:48.477Z</time>
      </trkpt>
      <trkpt lat="45.72279" lon="4.65418">
        <ele>351.1</ele>
        <time>2019-05-24T20:47:50.101Z</time>
      </trkpt>
      <trkpt lat="45.72204" lon="4.65357">
        <ele>339.7</ele>
        <time>2019-05-24T20:47:51.834Z</time>
      </trkpt>
      <trkpt lat="45.72176" lon="4.65407">
        <ele>339.8</ele>
        <time>2019-05-24T20:47:52.734Z</time>
      </trkpt>
      <trkpt lat="45.7202" lon="4.65317">
        <ele>359.1</ele>
        <time>2019-05-24T20:47:56.098Z</time>
      </trkpt>
      <trkpt lat="45.71676" lon="4.65424">
        <ele>402.5</ele>
        <time>2019-05-24T20:48:03.159Z</time>
      </trkpt>
      <trkpt lat="45.7159" lon="4.65453">
        <ele>416.6</ele>
        <time>2019-05-24T20:48:04.930Z</time>
      </trkpt>
      <trkpt lat="45.71553" lon="4.65516">
        <ele>424.4</ele>
        <time>2019-05-24T20:48:06.082Z</time>
      </trkpt>
      <trkpt lat="45.71476" lon="4.655">
        <ele>439.3</ele>
        <time>2019-05-24T20:48:07.625Z</time>
      </trkpt>
      <trkpt lat="45.71439" lon="4.65549">
        <ele>437.6</ele>
        <time>2019-05-24T20:48:08.643Z</time>
      </trkpt>
      <trkpt lat="45.71412" lon="4.65555">
        <ele>443</ele>
        <time>2019-05-24T20:48:09.191Z</time>
      </trkpt>
      <trkpt lat="45.71399" lon="4.65528">
        <ele>447.4</ele>
        <time>2019-05-24T20:48:09.641Z</time>
      </trkpt>
      <trkpt lat="45.71427" lon="4.65504">
        <ele>447</ele>
        <time>2019-05-24T20:48:10.290Z</time>
      </trkpt>
      <trkpt lat="45.71373" lon="4.65502">
        <ele>460.3</ele>
        <time>2019-05-24T20:48:11.372Z</time>
      </trkpt>
      <trkpt lat="45.71345" lon="4.65533">
        <ele>471.1</ele>
        <time>2019-05-24T20:48:12.075Z</time>
      </trkpt>
      <trkpt lat="45.71317" lon="4.65608">
        <ele>489.2</ele>
        <time>2019-05-24T20:48:13.281Z</time>
      </trkpt>
      <trkpt lat="45.71281" lon="4.658">
        <ele>501.8</ele>
        <time>2019-05-24T20:48:16.049Z</time>
      </trkpt>
      <trkpt lat="45.71241" lon="4.65759">
        <ele>511.7</ele>
        <time>2019-05-24T20:48:17.023Z</time>
      </trkpt>
      <trkpt lat="45.71168" lon="4.65609">
        <ele>517.9</ele>
        <time>2019-05-24T20:48:19.595Z</time>
      </trkpt>
      <trkpt lat="45.71055" lon="4.65437">
        <ele>527.5</ele>
        <time>2019-05-24T20:48:22.907Z</time>
      </trkpt>
      <trkpt lat="45.71055" lon="4.65437">
        <ele>527.5</ele>
        <time>2019-05-24T20:48:22.909Z</time>
      </trkpt>
      <trkpt lat="45.71019" lon="4.65435">
        <ele>525.1</ele>
        <time>2019-05-24T20:48:23.630Z</time>
      </trkpt>
      <trkpt lat="45.71053" lon="4.65283">
        <ele>543.2</ele>
        <time>2019-05-24T20:48:25.877Z</time>
      </trkpt>
      <trkpt lat="45.71054" lon="4.65238">
        <ele>549.2</ele>
        <time>2019-05-24T20:48:26.506Z</time>
      </trkpt>
      <trkpt lat="45.71055" lon="4.65206">
        <ele>552.8</ele>
        <time>2019-05-24T20:48:26.955Z</time>
      </trkpt>
      <trkpt lat="45.70945" lon="4.65098">
        <ele>561.9</ele>
        <time>2019-05-24T20:48:29.628Z</time>
      </trkpt>
      <trkpt lat="45.70858" lon="4.64915">
        <ele>568.1</ele>
        <time>2019-05-24T20:48:32.723Z</time>
      </trkpt>
      <trkpt lat="45.7078" lon="4.64802">
        <ele>571</ele>
        <time>2019-05-24T20:48:34.951Z</time>
      </trkpt>
      <trkpt lat="45.70718" lon="4.64517">
        <ele>587.6</ele>
        <time>2019-05-24T20:48:39.129Z</time>
      </trkpt>
      <trkpt lat="45.70666" lon="4.64425">
        <ele>597.8</ele>
        <time>2019-05-24T20:48:40.788Z</time>
      </trkpt>
      <trkpt lat="45.70546" lon="4.64336">
        <ele>610.7</ele>
        <time>2019-05-24T20:48:43.487Z</time>
      </trkpt>
      <trkpt lat="45.70446" lon="4.64184">
        <ele>602.9</ele>
        <time>2019-05-24T20:48:46.414Z</time>
      </trkpt>
      <trkpt lat="45.70407" lon="4.64086">
        <ele>599.5</ele>
        <time>2019-05-24T20:48:47.987Z</time>
      </trkpt>
      <trkpt lat="45.70388" lon="4.63912">
        <ele>595.2</ele>
        <time>2019-05-24T20:48:50.454Z</time>
      </trkpt>
      <trkpt lat="45.70358" lon="4.64078">
        <ele>609.7</ele>
        <time>2019-05-24T20:48:52.852Z</time>
      </trkpt>
      <trkpt lat="45.7033" lon="4.64122">
        <ele>613.5</ele>
        <time>2019-05-24T20:48:53.682Z</time>
      </trkpt>
      <trkpt lat="45.70303" lon="4.64108">
        <ele>616.3</ele>
        <time>2019-05-24T20:48:54.252Z</time>
      </trkpt>
      <trkpt lat="45.70319" lon="4.63993">
        <ele>619</ele>
        <time>2019-05-24T20:48:55.892Z</time>
      </trkpt>
      <trkpt lat="45.70294" lon="4.63928">
        <ele>624.9</ele>
        <time>2019-05-24T20:48:56.941Z</time>
      </trkpt>
      <trkpt lat="45.70177" lon="4.63679">
        <ele>647.6</ele>
        <time>2019-05-24T20:49:01.134Z</time>
      </trkpt>
      <trkpt lat="45.70148" lon="4.63587">
        <ele>654.8</ele>
        <time>2019-05-24T20:49:02.541Z</time>
      </trkpt>
      <trkpt lat="45.70149" lon="4.6351">
        <ele>663.5</ele>
        <time>2019-05-24T20:49:03.619Z</time>
      </trkpt>
      <trkpt lat="45.70155" lon="4.63247">
        <ele>686.3</ele>
        <time>2019-05-24T20:49:07.303Z</time>
      </trkpt>
      <trkpt lat="45.70262" lon="4.63078">
        <ele>673.1</ele>
        <time>2019-05-24T20:49:10.494Z</time>
      </trkpt>
      <trkpt lat="45.7031" lon="4.62894">
        <ele>666.8</ele>
        <time>2019-05-24T20:49:13.251Z</time>
      </trkpt>
      <trkpt lat="45.70299" lon="4.62785">
        <ele>659.7</ele>
        <time>2019-05-24T20:49:14.802Z</time>
      </trkpt>
      <trkpt lat="45.70343" lon="4.62607">
        <ele>656.6</ele>
        <time>2019-05-24T20:49:17.445Z</time>
      </trkpt>
      <trkpt lat="45.70322" lon="4.62522">
        <ele>665.9</ele>
        <time>2019-05-24T20:49:18.697Z</time>
      </trkpt>
      <trkpt lat="45.70306" lon="4.62444">
        <ele>673.1</ele>
        <time>2019-05-24T20:49:19.834Z</time>
      </trkpt>
      <trkpt lat="45.70149" lon="4.62206">
        <ele>683</ele>
        <time>2019-05-24T20:49:24.420Z</time>
      </trkpt>
      <trkpt lat="45.70149" lon="4.62207">
        <ele>683</ele>
        <time>2019-05-24T20:49:24.424Z</time>
      </trkpt>
      <trkpt lat="45.70074" lon="4.62126">
        <ele>697</ele>
        <time>2019-05-24T20:49:26.298Z</time>
      </trkpt>
      <trkpt lat="45.7007" lon="4.62088">
        <ele>707.9</ele>
        <time>2019-05-24T20:49:26.845Z</time>
      </trkpt>
      <trkpt lat="45.70075" lon="4.62069">
        <ele>712.6</ele>
        <time>2019-05-24T20:49:27.129Z</time>
      </trkpt>
      <trkpt lat="45.70062" lon="4.62049">
        <ele>714.8</ele>
        <time>2019-05-24T20:49:27.511Z</time>
      </trkpt>
      <trkpt lat="45.70076" lon="4.62011">
        <ele>721.6</ele>
        <time>2019-05-24T20:49:28.114Z</time>
      </trkpt>
      <trkpt lat="45.702" lon="4.62132">
        <ele>714.2</ele>
        <time>2019-05-24T20:49:31.111Z</time>
      </trkpt>
      <trkpt lat="45.7029" lon="4.62135">
        <ele>712.3</ele>
        <time>2019-05-24T20:49:32.914Z</time>
      </trkpt>
      <trkpt lat="45.70441" lon="4.62013">
        <ele>693.5</ele>
        <time>2019-05-24T20:49:36.390Z</time>
      </trkpt>
      <trkpt lat="45.70516" lon="4.61657">
        <ele>687</ele>
        <time>2019-05-24T20:49:41.600Z</time>
      </trkpt>
      <trkpt lat="45.70418" lon="4.61582">
        <ele>708.5</ele>
        <time>2019-05-24T20:49:43.816Z</time>
      </trkpt>
      <trkpt lat="45.70358" lon="4.61438">
        <ele>719.7</ele>
        <time>2019-05-24T20:49:46.161Z</time>
      </trkpt>
      <trkpt lat="45.70309" lon="4.61192">
        <ele>737.4</ele>
        <time>2019-05-24T20:49:49.742Z</time>
      </trkpt>
      <trkpt lat="45.70301" lon="4.60916">
        <ele>747.6</ele>
        <time>2019-05-24T20:49:53.615Z</time>
      </trkpt>
      <trkpt lat="45.70232" lon="4.60765">
        <ele>768.4</ele>
        <time>2019-05-24T20:49:56.135Z</time>
      </trkpt>
      <trkpt lat="45.70183" lon="4.60757">
        <ele>773.1</ele>
        <time>2019-05-24T20:49:57.131Z</time>
      </trkpt>
      <trkpt lat="45.70192" lon="4.60757">
        <ele>773</ele>
        <time>2019-05-24T20:49:57.311Z</time>
      </trkpt>
      <trkpt lat="45.70187" lon="4.6075">
        <ele>773</ele>
        <time>2019-05-24T20:49:57.438Z</time>
      </trkpt>
      <trkpt lat="45.70345" lon="4.60744">
        <ele>759.4</ele>
        <time>2019-05-24T20:50:00.598Z</time>
      </trkpt>
      <trkpt lat="45.70441" lon="4.6069">
        <ele>755.5</ele>
        <time>2019-05-24T20:50:02.657Z</time>
      </trkpt>
      <trkpt lat="45.70506" lon="4.60596">
        <ele>757.9</ele>
        <time>2019-05-24T20:50:04.504Z</time>
      </trkpt>
      <trkpt lat="45.70506" lon="4.6059">
        <ele>758.8</ele>
        <time>2019-05-24T20:50:04.594Z</time>
      </trkpt>
      <trkpt lat="45.70506" lon="4.60596">
        <ele>757.9</ele>
        <time>2019-05-24T20:50:04.684Z</time>
      </trkpt>
      <trkpt lat="45.70598" lon="4.60491">
        <ele>739.3</ele>
        <time>2019-05-24T20:50:07.047Z</time>
      </trkpt>
      <trkpt lat="45.70661" lon="4.60455">
        <ele>730</ele>
        <time>2019-05-24T20:50:08.419Z</time>
      </trkpt>
      <trkpt lat="45.70589" lon="4.60247">
        <ele>716.2</ele>
        <time>2019-05-24T20:50:11.677Z</time>
      </trkpt>
      <trkpt lat="45.70566" lon="4.60034">
        <ele>706.3</ele>
        <time>2019-05-24T20:50:14.691Z</time>
      </trkpt>
      <trkpt lat="45.70653" lon="4.60204">
        <ele>695</ele>
        <time>2019-05-24T20:50:17.642Z</time>
      </trkpt>
      <trkpt lat="45.70747" lon="4.60227">
        <ele>687.6</ele>
        <time>2019-05-24T20:50:19.554Z</time>
      </trkpt>
      <trkpt lat="45.70678" lon="4.6009">
        <ele>675</ele>
        <time>2019-05-24T20:50:21.929Z</time>
      </trkpt>
      <trkpt lat="45.70678" lon="4.59871">
        <ele>663.5</ele>
        <time>2019-05-24T20:50:24.985Z</time>
      </trkpt>
      <trkpt lat="45.70729" lon="4.59771">
        <ele>651.7</ele>
        <time>2019-05-24T20:50:26.734Z</time>
      </trkpt>
      <trkpt lat="45.70729" lon="4.59771">
        <ele>651.7</ele>
        <time>2019-05-24T20:50:26.736Z</time>
      </trkpt>
      <trkpt lat="45.70736" lon="4.59675">
        <ele>643.8</ele>
        <time>2019-05-24T20:50:28.087Z</time>
      </trkpt>
      <trkpt lat="45.70704" lon="4.59481">
        <ele>651.3</ele>
        <time>2019-05-24T20:50:30.877Z</time>
      </trkpt>
      <trkpt lat="45.70734" lon="4.59289">
        <ele>669.6</ele>
        <time>2019-05-24T20:50:33.626Z</time>
      </trkpt>
      <trkpt lat="45.70772" lon="4.59207">
        <ele>687.1</ele>
        <time>2019-05-24T20:50:34.999Z</time>
      </trkpt>
      <trkpt lat="45.70777" lon="4.59175">
        <ele>695.8</ele>
        <time>2019-05-24T20:50:35.457Z</time>
      </trkpt>
      <trkpt lat="45.70858" lon="4.59191">
        <ele>694.3</ele>
        <time>2019-05-24T20:50:37.089Z</time>
      </trkpt>
      <trkpt lat="45.7089" lon="4.59161">
        <ele>695.4</ele>
        <time>2019-05-24T20:50:37.864Z</time>
      </trkpt>
      <trkpt lat="45.708" lon="4.58919">
        <ele>690</ele>
        <time>2019-05-24T20:50:41.689Z</time>
      </trkpt>
      <trkpt lat="45.71052" lon="4.59187">
        <ele>669.6</ele>
        <time>2019-05-24T20:50:47.959Z</time>
      </trkpt>
      <trkpt lat="45.71083" lon="4.59201">
        <ele>678.2</ele>
        <time>2019-05-24T20:50:48.615Z</time>
      </trkpt>
      <trkpt lat="45.71109" lon="4.59253">
        <ele>683</ele>
        <time>2019-05-24T20:50:49.514Z</time>
      </trkpt>
      <trkpt lat="45.71131" lon="4.59248">
        <ele>681.4</ele>
        <time>2019-05-24T20:50:49.974Z</time>
      </trkpt>
      <trkpt lat="45.71141" lon="4.59216">
        <ele>689.7</ele>
        <time>2019-05-24T20:50:50.458Z</time>
      </trkpt>
      <trkpt lat="45.7135" lon="4.59128">
        <ele>688.5</ele>
        <time>2019-05-24T20:50:54.818Z</time>
      </trkpt>
      <trkpt lat="45.71416" lon="4.59195">
        <ele>683.7</ele>
        <time>2019-05-24T20:50:56.441Z</time>
      </trkpt>
      <trkpt lat="45.71407" lon="4.59657">
        <ele>674.5</ele>
        <time>2019-05-24T20:51:02.910Z</time>
      </trkpt>
      <trkpt lat="45.7152" lon="4.59822">
        <ele>674.6</ele>
        <time>2019-05-24T20:51:06.156Z</time>
      </trkpt>
      <trkpt lat="45.71857" lon="4.59656">
        <ele>679.6</ele>
        <time>2019-05-24T20:51:13.286Z</time>
      </trkpt>
      <trkpt lat="45.71904" lon="4.59742">
        <ele>678</ele>
        <time>2019-05-24T20:51:14.818Z</time>
      </trkpt>
      <trkpt lat="45.7189" lon="4.6003">
        <ele>675.1</ele>
        <time>2019-05-24T20:51:18.865Z</time>
      </trkpt>
      <trkpt lat="45.71937" lon="4.60116">
        <ele>676.9</ele>
        <time>2019-05-24T20:51:20.397Z</time>
      </trkpt>
      <trkpt lat="45.72059" lon="4.60114">
        <ele>678.1</ele>
        <time>2019-05-24T20:51:22.833Z</time>
      </trkpt>
      <trkpt lat="45.72119" lon="4.60271">
        <ele>673.7</ele>
        <time>2019-05-24T20:51:25.331Z</time>
      </trkpt>
      <trkpt lat="45.72098" lon="4.60392">
        <ele>670.4</ele>
        <time>2019-05-24T20:51:27.076Z</time>
      </trkpt>
      <trkpt lat="45.7217" lon="4.60621">
        <ele>671.4</ele>
        <time>2019-05-24T20:51:30.581Z</time>
      </trkpt>
      <trkpt lat="45.7217" lon="4.6062">
        <ele>671.5</ele>
        <time>2019-05-24T20:51:30.587Z</time>
      </trkpt>
      <trkpt lat="45.72303" lon="4.60722">
        <ele>668.5</ele>
        <time>2019-05-24T20:51:33.608Z</time>
      </trkpt>
      <trkpt lat="45.72465" lon="4.60716">
        <ele>680.1</ele>
        <time>2019-05-24T20:51:36.858Z</time>
      </trkpt>
      <trkpt lat="45.72456" lon="4.60966">
        <ele>674.6</ele>
        <time>2019-05-24T20:51:40.363Z</time>
      </trkpt>
      <trkpt lat="45.72443" lon="4.61139">
        <ele>673.5</ele>
        <time>2019-05-24T20:51:42.796Z</time>
      </trkpt>
      <trkpt lat="45.72428" lon="4.61222">
        <ele>673.4</ele>
        <time>2019-05-24T20:51:43.995Z</time>
      </trkpt>
      <trkpt lat="45.72431" lon="4.61312">
        <ele>670.2</ele>
        <time>2019-05-24T20:51:45.256Z</time>
      </trkpt>
      <trkpt lat="45.72539" lon="4.61278">
        <ele>661.1</ele>
        <time>2019-05-24T20:51:47.486Z</time>
      </trkpt>
      <trkpt lat="45.72577" lon="4.61209">
        <ele>672.1</ele>
        <time>2019-05-24T20:51:48.710Z</time>
      </trkpt>
      <trkpt lat="45.72671" lon="4.61245">
        <ele>661.4</ele>
        <time>2019-05-24T20:51:50.655Z</time>
      </trkpt>
      <trkpt lat="45.7268" lon="4.61245">
        <ele>660.6</ele>
        <time>2019-05-24T20:51:50.835Z</time>
      </trkpt>
      <trkpt lat="45.72784" lon="4.61192">
        <ele>663.5</ele>
        <time>2019-05-24T20:51:53.061Z</time>
      </trkpt>
      <trkpt lat="45.72922" lon="4.61262">
        <ele>660.5</ele>
        <time>2019-05-24T20:51:55.996Z</time>
      </trkpt>
      <trkpt lat="45.73008" lon="4.61259">
        <ele>658.6</ele>
        <time>2019-05-24T20:51:57.711Z</time>
      </trkpt>
      <trkpt lat="45.73187" lon="4.6108">
        <ele>668.9</ele>
        <time>2019-05-24T20:52:02.087Z</time>
      </trkpt>
      <trkpt lat="45.73226" lon="4.61165">
        <ele>664.5</ele>
        <time>2019-05-24T20:52:03.509Z</time>
      </trkpt>
      <trkpt lat="45.73223" lon="4.613">
        <ele>658.7</ele>
        <time>2019-05-24T20:52:05.396Z</time>
      </trkpt>
      <trkpt lat="45.73284" lon="4.61399">
        <ele>657.1</ele>
        <time>2019-05-24T20:52:07.242Z</time>
      </trkpt>
      <trkpt lat="45.73378" lon="4.61403">
        <ele>661</ele>
        <time>2019-05-24T20:52:09.135Z</time>
      </trkpt>
      <trkpt lat="45.73296" lon="4.61701">
        <ele>655.2</ele>
        <time>2019-05-24T20:52:13.628Z</time>
      </trkpt>
      <trkpt lat="45.73294" lon="4.61785">
        <ele>653</ele>
        <time>2019-05-24T20:52:14.796Z</time>
      </trkpt>
      <trkpt lat="45.73342" lon="4.61883">
        <ele>661.5</ele>
        <time>2019-05-24T20:52:16.469Z</time>
      </trkpt>
      <trkpt lat="45.73399" lon="4.6195">
        <ele>668.8</ele>
        <time>2019-05-24T20:52:17.946Z</time>
      </trkpt>
      <trkpt lat="45.73413" lon="4.6213">
        <ele>666.2</ele>
        <time>2019-05-24T20:52:20.487Z</time>
      </trkpt>
      <trkpt lat="45.73356" lon="4.62288">
        <ele>648.2</ele>
        <time>2019-05-24T20:52:22.980Z</time>
      </trkpt>
      <trkpt lat="45.73337" lon="4.62352">
        <ele>637.2</ele>
        <time>2019-05-24T20:52:23.948Z</time>
      </trkpt>
      <trkpt lat="45.73334" lon="4.62487">
        <ele>617.1</ele>
        <time>2019-05-24T20:52:25.835Z</time>
      </trkpt>
      <trkpt lat="45.73274" lon="4.62574">
        <ele>610.5</ele>
        <time>2019-05-24T20:52:27.554Z</time>
      </trkpt>
      <trkpt lat="45.7319" lon="4.62718">
        <ele>610.8</ele>
        <time>2019-05-24T20:52:30.182Z</time>
      </trkpt>
      <trkpt lat="45.73148" lon="4.62994">
        <ele>601.5</ele>
        <time>2019-05-24T20:52:34.122Z</time>
      </trkpt>
      <trkpt lat="45.73148" lon="4.62993">
        <ele>601.5</ele>
        <time>2019-05-24T20:52:34.131Z</time>
      </trkpt>
      <trkpt lat="45.73151" lon="4.63263">
        <ele>593.6</ele>
        <time>2019-05-24T20:52:37.909Z</time>
      </trkpt>
      <trkpt lat="45.73124" lon="4.63506">
        <ele>592.7</ele>
        <time>2019-05-24T20:52:41.353Z</time>
      </trkpt>
      <trkpt lat="45.73115" lon="4.63519">
        <ele>592.5</ele>
        <time>2019-05-24T20:52:41.608Z</time>
      </trkpt>
      <trkpt lat="45.73092" lon="4.63768">
        <ele>580.3</ele>
        <time>2019-05-24T20:52:45.131Z</time>
      </trkpt>
      <trkpt lat="45.73084" lon="4.63935">
        <ele>572</ele>
        <time>2019-05-24T20:52:47.469Z</time>
      </trkpt>
      <trkpt lat="45.72997" lon="4.64233">
        <ele>538.5</ele>
        <time>2019-05-24T20:52:51.993Z</time>
      </trkpt>
      <trkpt lat="45.73064" lon="4.64448">
        <ele>514.5</ele>
        <time>2019-05-24T20:52:55.290Z</time>
      </trkpt>
      <trkpt lat="45.73066" lon="4.64558">
        <ele>497</ele>
        <time>2019-05-24T20:52:56.820Z</time>
      </trkpt>
      <trkpt lat="45.73098" lon="4.64559">
        <ele>495.8</ele>
        <time>2019-05-24T20:52:57.451Z</time>
      </trkpt>
      <trkpt lat="45.7307" lon="4.64603">
        <ele>488.7</ele>
        <time>2019-05-24T20:52:58.281Z</time>
      </trkpt>
      <trkpt lat="45.73079" lon="4.64622">
        <ele>484.6</ele>
        <time>2019-05-24T20:52:58.605Z</time>
      </trkpt>
      <trkpt lat="45.73082" lon="4.64655">
        <ele>477.6</ele>
        <time>2019-05-24T20:52:59.063Z</time>
      </trkpt>
      <trkpt lat="45.72996" lon="4.64683">
        <ele>468.5</ele>
        <time>2019-05-24T20:53:00.834Z</time>
      </trkpt>
      <trkpt lat="45.72981" lon="4.64766">
        <ele>455.9</ele>
        <time>2019-05-24T20:53:02.033Z</time>
      </trkpt>
      <trkpt lat="45.72917" lon="4.64796">
        <ele>448.1</ele>
        <time>2019-05-24T20:53:03.373Z</time>
      </trkpt>
      <trkpt lat="45.72943" lon="4.64887">
        <ele>440.3</ele>
        <time>2019-05-24T20:53:04.742Z</time>
      </trkpt>
      <trkpt lat="45.73077" lon="4.64911">
        <ele>428.7</ele>
        <time>2019-05-24T20:53:07.460Z</time>
      </trkpt>
      <trkpt lat="45.73285" lon="4.651">
        <ele>400.5</ele>
        <time>2019-05-24T20:53:12.387Z</time>
      </trkpt>
      <trkpt lat="45.73289" lon="4.651">
        <ele>400.4</ele>
        <time>2019-05-24T20:53:12.477Z</time>
      </trkpt>
      <trkpt lat="45.73464" lon="4.65365">
        <ele>376</ele>
        <time>2019-05-24T20:53:17.567Z</time>
      </trkpt>
      <trkpt lat="45.73549" lon="4.65381">
        <ele>369.4</ele>
        <time>2019-05-24T20:53:19.289Z</time>
      </trkpt>
      <trkpt lat="45.7371" lon="4.65652">
        <ele>404.7</ele>
        <time>2019-05-24T20:53:24.263Z</time>
      </trkpt>
    </trkseg>
  </trk>
</gpx>